Terminal Aerodrome Forecast
Issued by NWS

Home | Current Version | Previous Version | Text Only | Print | Product List | Glossary On
Versions: 1 2 3 4 5 6 7 8 9 10 11 12 13 14 15 16 17 18 19 20 21
000
FTUS41 KBTV 261731
TAFSLK
TAF
KSLK 261731Z 2618/2718 25004KT P6SM VCSH SCT050 BKN070
      TEMPO 2619/2623 4SM -SHRA BR SCT035 BKN050
     FM262300 VRB03KT P6SM VCSH SCT040 BKN060
     FM270300 00000KT P6SM SCT035 BKN080
     FM270900 22003KT P6SM SCT009 BKN015
     FM271500 23007KT 4SM -SHRA BR SCT035 BKN050=

USA.gov is the U.S. government's official web portal to all federal, state and local government web resources and services.